Time;durP1;ratioP1;P1;durP2;ratioP2;P2;SDS_P1;SDS_P2;PMS_P1;PMS_P2;Temp;Humidity;BMP_temperature;BMP_pressure;BME280_temperature;BME280_humidity;BME280_pressure;Samples;Min_cycle;Max_cycle;Signal;HPM_P1;HPM_P2
2023/05/23 00:00:43;;;;;;;10.77;9.10;;;17.80;99.90;;;;;;2104536;28;20028;-71
2023/05/23 00:01:44;;;;;;;10.52;8.50;;;17.80;99.90;;;;;;2106315;28;20016;-71
2023/05/23 00:02:45;;;;;;;9.23;8.32;;;17.80;99.90;;;;;;2104776;28;20020;-71
2023/05/23 00:03:48;;;;;;;9.25;8.20;;;17.80;99.90;;;;;;2102046;28;20535;-71
2023/05/23 00:04:48;;;;;;;7.60;7.00;;;17.80;99.90;;;;;;2104565;28;20114;-71
2023/05/23 00:05:50;;;;;;;9.55;7.38;;;17.80;99.90;;;;;;2104806;28;20671;-71
2023/05/23 00:06:50;;;;;;;10.10;9.10;;;17.80;99.90;;;;;;2104372;28;20891;-71
2023/05/23 00:07:51;;;;;;;8.98;8.18;;;17.80;99.90;;;;;;2107256;28;20450;-71
2023/05/23 00:08:51;;;;;;;9.25;8.07;;;17.80;99.90;;;;;;2104847;28;20062;-71
2023/05/23 00:09:52;;;;;;;8.57;7.70;;;17.80;99.90;;;;;;2102888;28;20450;-71
2023/05/23 00:10:52;;;;;;;9.32;8.38;;;17.70;99.90;;;;;;2105860;28;20041;-71
2023/05/23 00:11:53;;;;;;;8.90;8.00;;;17.80;99.90;;;;;;2104908;28;20058;-71
2023/05/23 00:12:54;;;;;;;8.48;7.65;;;17.70;99.90;;;;;;2106482;28;20025;-71
2023/05/23 00:13:59;;;;;;;8.95;8.15;;;17.80;99.90;;;;;;2103260;28;20338;-71
2023/05/23 00:15:01;;;;;;;8.40;7.60;;;17.70;99.90;;;;;;2102926;28;20035;-71
2023/05/23 00:16:02;;;;;;;8.25;7.55;;;17.70;99.90;;;;;;2105985;28;20404;-72
2023/05/23 00:17:03;;;;;;;9.20;8.27;;;17.70;99.90;;;;;;2104211;28;20047;-72
2023/05/23 00:18:04;;;;;;;8.65;7.78;;;17.60;99.90;;;;;;2104525;28;20036;-72
2023/05/23 00:19:05;;;;;;;8.00;7.30;;;17.60;99.90;;;;;;2105422;28;20085;-72
2023/05/23 00:20:10;;;;;;;9.30;8.40;;;17.60;99.90;;;;;;2100993;28;20438;-72
2023/05/23 00:21:12;;;;;;;7.57;6.80;;;17.60;99.90;;;;;;2104839;28;20016;-72
2023/05/23 00:22:15;;;;;;;8.18;7.47;;;17.60;99.90;;;;;;2102499;28;20020;-72
2023/05/23 00:23:19;;;;;;;8.52;7.22;;;17.60;99.90;;;;;;2102632;28;20120;-72
2023/05/23 00:24:20;;;;;;;7.88;7.10;;;17.60;99.90;;;;;;2104662;28;20054;-72
2023/05/23 00:25:21;;;;;;;8.27;7.47;;;17.60;99.90;;;;;;2105120;28;20024;-72
2023/05/23 00:26:23;;;;;;;8.15;7.35;;;17.50;99.90;;;;;;2102882;28;20108;-72
2023/05/23 00:27:23;;;;;;;6.43;5.70;;;17.60;99.90;;;;;;2102737;28;20038;-72
2023/05/23 00:28:24;;;;;;;5.47;4.72;;;17.50;99.90;;;;;;2103207;28;20284;-72
2023/05/23 00:29:25;;;;;;;5.50;5.10;;;17.50;99.90;;;;;;2104498;28;20016;-72
2023/05/23 00:30:27;;;;;;;6.18;5.57;;;17.50;99.90;;;;;;2103736;28;20016;-72
2023/05/23 00:31:28;;;;;;;5.88;4.80;;;17.50;99.90;;;;;;2103915;28;20356;-72
2023/05/23 00:32:28;;;;;;;5.60;4.65;;;17.40;99.90;;;;;;2104206;28;20074;-72
2023/05/23 00:33:31;;;;;;;5.00;4.50;;;17.40;99.90;;;;;;2102527;28;20027;-72
2023/05/23 00:34:33;;;;;;;5.15;4.75;;;17.40;99.90;;;;;;2104546;28;20027;-71
2023/05/23 00:35:33;;;;;;;5.32;4.85;;;17.40;99.90;;;;;;2103014;28;20024;-71
2023/05/23 00:36:36;;;;;;;4.80;4.40;;;17.40;99.90;;;;;;2103496;28;20032;-72
2023/05/23 00:37:37;;;;;;;5.50;5.05;;;17.40;99.90;;;;;;2106228;28;20521;-72
2023/05/23 00:38:38;;;;;;;5.20;4.60;;;17.40;99.90;;;;;;2105058;28;20426;-72
2023/05/23 00:39:39;;;;;;;5.38;4.57;;;17.40;99.90;;;;;;2103290;28;20011;-72
2023/05/23 00:40:39;;;;;;;5.13;4.60;;;17.40;99.90;;;;;;2101924;28;20107;-72
2023/05/23 00:41:40;;;;;;;4.68;4.00;;;17.40;99.90;;;;;;2104588;28;20020;-72
2023/05/23 00:42:40;;;;;;;6.03;4.30;;;17.40;99.90;;;;;;2105347;28;20421;-72
2023/05/23 00:43:41;;;;;;;4.97;4.55;;;17.40;99.90;;;;;;2102472;28;20069;-72
2023/05/23 00:44:41;;;;;;;3.80;3.50;;;17.40;99.90;;;;;;2102733;28;20479;-72
2023/05/23 00:45:42;;;;;;;4.32;4.00;;;17.40;99.90;;;;;;2105235;28;20024;-72
2023/05/23 00:46:44;;;;;;;4.60;4.20;;;17.40;99.90;;;;;;2102964;28;20020;-71
2023/05/23 00:47:47;;;;;;;4.95;4.45;;;17.40;99.90;;;;;;2103797;28;20114;-72
2023/05/23 00:48:47;;;;;;;4.35;4.05;;;17.30;99.90;;;;;;2104003;28;20045;-72
2023/05/23 00:49:48;;;;;;;4.88;4.38;;;17.30;99.90;;;;;;2102600;28;20028;-72
2023/05/23 00:50:49;;;;;;;5.03;4.63;;;17.30;99.90;;;;;;2099049;28;20086;-72
2023/05/23 00:51:51;;;;;;;4.57;4.18;;;17.30;99.90;;;;;;2103003;28;20020;-72
2023/05/23 00:52:51;;;;;;;4.68;4.28;;;17.30;99.90;;;;;;2102093;28;20028;-72
2023/05/23 00:53:53;;;;;;;5.30;4.30;;;17.30;99.90;;;;;;2103468;28;20016;-72
2023/05/23 00:54:53;;;;;;;4.45;4.05;;;17.30;99.90;;;;;;2102654;28;20024;-71
2023/05/23 00:55:54;;;;;;;5.30;4.80;;;17.30;99.90;;;;;;2105422;28;20461;-72
2023/05/23 00:56:54;;;;;;;4.85;4.03;;;17.30;99.90;;;;;;2102569;28;20016;-72
2023/05/23 00:57:58;;;;;;;5.57;4.13;;;17.30;99.90;;;;;;2101761;28;20040;-72
2023/05/23 00:58:59;;;;;;;4.40;4.07;;;17.20;99.90;;;;;;2103753;28;20028;-72
2023/05/23 01:00:01;;;;;;;4.63;4.25;;;17.20;99.90;;;;;;2102975;28;20027;-72
2023/05/23 01:01:01;;;;;;;4.90;4.50;;;17.20;99.90;;;;;;2102392;28;20032;-71
2023/05/23 01:02:02;;;;;;;4.95;4.28;;;17.30;99.90;;;;;;2099384;28;21172;-71
2023/05/23 01:03:03;;;;;;;4.35;3.95;;;17.30;99.90;;;;;;2103874;28;20540;-71
2023/05/23 01:04:05;;;;;;;5.18;4.68;;;17.30;99.90;;;;;;2103555;28;20102;-71
2023/05/23 01:05:06;;;;;;;6.88;4.38;;;17.20;99.90;;;;;;2102841;28;20084;-71
2023/05/23 01:06:07;;;;;;;4.70;4.30;;;17.20;99.90;;;;;;2103535;28;20040;-71
2023/05/23 01:07:09;;;;;;;4.63;4.30;;;17.20;99.90;;;;;;2103095;28;20024;-71
2023/05/23 01:08:09;;;;;;;6.20;4.60;;;17.20;99.90;;;;;;2103349;28;20024;-71
2023/05/23 01:09:10;;;;;;;5.18;4.50;;;17.30;99.90;;;;;;2102588;28;20032;-71
2023/05/23 01:10:11;;;;;;;5.38;4.65;;;17.30;99.90;;;;;;2103736;28;20030;-71
2023/05/23 01:11:24;;;;;;;6.72;4.75;;;17.20;99.90;;;;;;2103403;28;20057;-71
2023/05/23 01:12:43;;;;;;;4.90;4.40;;;17.30;99.90;;;;;;2105199;28;20686;-71
2023/05/23 01:13:57;;;;;;;5.15;4.72;;;17.30;99.90;;;;;;2102499;28;20147;-71
2023/05/23 01:15:00;;;;;;;5.28;4.78;;;17.20;99.90;;;;;;2102274;28;20019;-71
2023/05/23 01:16:13;;;;;;;5.55;5.03;;;17.30;99.90;;;;;;2102508;28;20458;-71
2023/05/23 01:17:25;;;;;;;5.95;5.45;;;17.20;99.90;;;;;;2103180;28;20031;-71
2023/05/23 01:18:37;;;;;;;5.10;4.60;;;17.20;99.90;;;;;;2103272;28;20052;-71
2023/05/23 01:20:04;;;;;;;5.32;4.85;;;17.20;99.90;;;;;;2104334;28;20034;-71
2023/05/23 01:21:16;;;;;;;4.50;4.10;;;17.20;99.90;;;;;;2105021;28;20076;-71
2023/05/23 01:22:43;;;;;;;5.30;4.80;;;17.20;99.90;;;;;;2103933;28;20074;-71
2023/05/23 01:24:16;;;;;;;4.40;4.07;;;17.20;99.90;;;;;;2085121;28;20698;-71
2023/05/23 01:26:05;;;;;;;4.57;4.18;;;17.20;99.90;;;;;;2102323;28;20036;-70
2023/05/23 01:27:28;;;;;;;6.63;4.95;;;17.10;99.90;;;;;;2106636;28;20142;-71
2023/05/23 01:28:36;;;;;;;5.20;4.47;;;17.20;99.90;;;;;;2100466;28;20033;-71
2023/05/23 01:29:45;;;;;;;5.30;4.80;;;17.20;99.90;;;;;;2103075;28;20024;-71
2023/05/23 01:30:48;;;;;;;5.18;4.65;;;17.20;99.90;;;;;;2103372;28;20111;-71
2023/05/23 01:31:53;;;;;;;5.40;4.90;;;17.20;99.90;;;;;;2104847;28;20476;-71
2023/05/23 01:32:55;;;;;;;5.15;4.65;;;17.20;99.90;;;;;;2103204;28;20020;-71
2023/05/23 01:33:56;;;;;;;4.90;4.50;;;17.20;99.90;;;;;;2102594;28;20484;-70
2023/05/23 01:34:58;;;;;;;5.47;4.95;;;17.20;99.90;;;;;;2105320;28;20994;-71
2023/05/23 01:36:02;;;;;;;6.07;4.43;;;17.30;99.90;;;;;;2103764;28;20024;-71
2023/05/23 01:37:10;;;;;;;4.88;4.47;;;17.20;99.90;;;;;;2102738;28;20025;-71
2023/05/23 01:38:11;;;;;;;4.75;4.22;;;17.30;99.90;;;;;;2102775;28;20525;-71
2023/05/23 01:39:11;;;;;;;4.90;4.50;;;17.30;99.90;;;;;;2103581;28;20028;-71
2023/05/23 01:40:12;;;;;;;4.55;4.15;;;17.30;99.90;;;;;;2102038;28;20035;-71
2023/05/23 01:41:12;;;;;;;5.38;4.88;;;17.30;99.90;;;;;;2102278;28;20024;-71
2023/05/23 01:42:13;;;;;;;6.07;4.50;;;17.30;99.90;;;;;;2104567;28;20150;-71
2023/05/23 01:43:14;;;;;;;5.13;4.65;;;17.30;99.90;;;;;;2104439;28;20077;-71
2023/05/23 01:44:15;;;;;;;5.32;4.82;;;17.30;99.90;;;;;;2103001;28;21152;-71
2023/05/23 01:45:17;;;;;;;5.00;4.60;;;17.30;99.90;;;;;;2104327;28;20036;-71
2023/05/23 01:46:18;;;;;;;6.43;5.82;;;17.30;99.90;;;;;;2104699;28;20056;-71
2023/05/23 01:47:19;;;;;;;6.70;4.88;;;17.30;99.90;;;;;;2103037;28;20071;-71
2023/05/23 01:48:21;;;;;;;5.45;4.93;;;17.30;99.90;;;;;;2103541;28;20032;-71
2023/05/23 01:49:22;;;;;;;6.30;5.70;;;17.30;99.90;;;;;;2102118;28;20052;-71
2023/05/23 01:50:23;;;;;;;5.50;4.85;;;17.30;99.90;;;;;;2104746;28;20056;-71
2023/05/23 01:51:25;;;;;;;6.18;4.70;;;17.30;99.90;;;;;;2101697;28;20349;-71
2023/05/23 01:52:27;;;;;;;6.00;4.43;;;17.30;99.90;;;;;;2103443;28;20177;-71
2023/05/23 01:53:29;;;;;;;5.60;5.10;;;17.30;99.90;;;;;;2104821;28;20020;-71
2023/05/23 01:54:31;;;;;;;5.78;5.25;;;17.30;99.90;;;;;;2100859;28;20028;-71
2023/05/23 01:55:32;;;;;;;4.90;4.40;;;17.30;99.90;;;;;;2103622;28;20028;-71
2023/05/23 01:56:33;;;;;;;5.25;4.75;;;17.30;99.90;;;;;;2103567;28;20119;-71
2023/05/23 01:57:36;;;;;;;6.00;5.22;;;17.40;99.90;;;;;;2101058;28;20028;-71
2023/05/23 01:58:37;;;;;;;6.50;5.50;;;17.40;99.90;;;;;;2105486;28;20039;-71
2023/05/23 01:59:38;;;;;;;5.13;4.68;;;17.40;99.90;;;;;;2104575;28;20023;-71
2023/05/23 02:00:38;;;;;;;4.93;4.53;;;17.40;99.90;;;;;;2103464;28;20027;-71
2023/05/23 02:01:40;;;;;;;6.45;5.68;;;17.40;99.90;;;;;;2105371;28;20052;-71
2023/05/23 02:02:41;;;;;;;6.30;5.80;;;17.40;99.90;;;;;;2102204;28;20020;-71
2023/05/23 02:03:41;;;;;;;7.03;6.00;;;17.30;99.90;;;;;;2104154;28;20450;-71
2023/05/23 02:04:42;;;;;;;6.38;5.60;;;17.30;99.90;;;;;;2106057;28;20023;-71
2023/05/23 02:05:42;;;;;;;6.18;5.57;;;17.30;99.90;;;;;;2103171;28;20040;-71
2023/05/23 02:06:43;;;;;;;7.82;6.03;;;17.30;99.90;;;;;;2104724;28;20030;-71
2023/05/23 02:07:43;;;;;;;12.63;6.38;;;17.30;99.90;;;;;;2102253;28;20086;-71
2023/05/23 02:08:44;;;;;;;6.05;5.45;;;17.20;99.90;;;;;;2104858;28;20035;-71
2023/05/23 02:09:45;;;;;;;8.38;6.68;;;17.20;99.90;;;;;;2103501;28;20468;-71
2023/05/23 02:10:45;;;;;;;8.27;6.50;;;17.30;99.90;;;;;;2105083;28;20031;-70
2023/05/23 02:11:46;;;;;;;9.80;6.13;;;17.30;99.90;;;;;;2102905;28;20032;-71
2023/05/23 02:12:46;;;;;;;7.45;6.22;;;17.30;99.90;;;;;;2104322;28;20107;-71
2023/05/23 02:13:47;;;;;;;6.93;6.32;;;17.30;99.90;;;;;;2104357;28;20686;-71
2023/05/23 02:14:50;;;;;;;7.10;6.40;;;17.30;99.90;;;;;;2105099;28;20125;-71
2023/05/23 02:15:51;;;;;;;8.38;6.78;;;17.30;99.90;;;;;;2103478;28;20077;-71
2023/05/23 02:16:52;;;;;;;7.90;7.20;;;17.30;99.90;;;;;;2104173;28;20028;-71
2023/05/23 02:17:53;;;;;;;7.97;7.15;;;17.30;99.90;;;;;;2103378;28;20404;-71
2023/05/23 02:18:55;;;;;;;9.43;7.18;;;17.30;99.90;;;;;;2103846;28;20057;-70
2023/05/23 02:19:56;;;;;;;7.57;6.60;;;17.30;99.90;;;;;;2103975;28;20387;-71
2023/05/23 02:20:56;;;;;;;8.88;8.02;;;17.20;99.90;;;;;;2101760;28;20077;-71
2023/05/23 02:21:57;;;;;;;9.05;7.15;;;17.30;99.90;;;;;;2102274;28;20036;-71
2023/05/23 02:22:57;;;;;;;7.95;7.15;;;17.30;99.90;;;;;;2101121;28;20028;-71
2023/05/23 02:23:58;;;;;;;7.28;6.65;;;17.30;99.90;;;;;;2102836;28;20033;-70
2023/05/23 02:24:58;;;;;;;7.82;7.07;;;17.30;99.90;;;;;;2101817;28;20086;-71
2023/05/23 02:25:59;;;;;;;8.15;6.93;;;17.30;99.90;;;;;;2102697;28;20104;-71
2023/05/23 02:26:59;;;;;;;7.72;6.72;;;17.30;99.90;;;;;;2103918;28;20073;-71
2023/05/23 02:28:00;;;;;;;8.50;7.25;;;17.30;99.90;;;;;;2103836;28;20529;-70
2023/05/23 02:29:01;;;;;;;8.30;7.50;;;17.30;99.90;;;;;;2104413;28;20149;-71
2023/05/23 02:30:01;;;;;;;9.40;7.53;;;17.30;99.90;;;;;;2102025;28;20020;-71
2023/05/23 02:31:02;;;;;;;9.75;7.93;;;17.30;99.90;;;;;;2104679;28;20574;-71
2023/05/23 02:32:02;;;;;;;7.47;6.72;;;17.30;99.90;;;;;;2103643;28;20016;-71
2023/05/23 02:33:06;;;;;;;9.32;7.53;;;17.30;99.90;;;;;;2102037;28;20150;-71
2023/05/23 02:34:07;;;;;;;8.30;7.50;;;17.30;99.90;;;;;;2103367;28;20038;-71
2023/05/23 02:35:09;;;;;;;7.28;6.57;;;17.30;99.90;;;;;;2104044;28;21243;-71
2023/05/23 02:36:09;;;;;;;7.13;6.43;;;17.40;99.90;;;;;;2101506;28;20055;-71
2023/05/23 02:37:10;;;;;;;7.57;6.88;;;17.40;99.90;;;;;;2105074;28;20016;-71
2023/05/23 02:38:11;;;;;;;7.38;6.55;;;17.40;99.90;;;;;;2102305;28;20040;-71
2023/05/23 02:39:12;;;;;;;7.93;7.05;;;17.40;99.90;;;;;;2104004;28;20055;-71
2023/05/23 02:40:12;;;;;;;7.97;6.55;;;17.40;99.90;;;;;;2104964;28;20024;-71
2023/05/23 02:41:13;;;;;;;7.07;6.38;;;17.40;99.90;;;;;;2105002;28;20589;-71
2023/05/23 02:42:14;;;;;;;7.80;6.63;;;17.50;99.90;;;;;;2104237;28;20027;-71
2023/05/23 02:43:15;;;;;;;7.35;6.55;;;17.50;99.90;;;;;;2103891;28;20016;-70
2023/05/23 02:44:18;;;;;;;8.52;7.40;;;17.40;99.90;;;;;;2100395;28;20077;-70
2023/05/23 02:45:19;;;;;;;7.63;6.82;;;17.50;99.90;;;;;;2103216;28;20024;-71
2023/05/23 02:46:20;;;;;;;9.15;7.13;;;17.40;99.90;;;;;;2102160;28;20080;-71
2023/05/23 02:47:20;;;;;;;7.55;6.85;;;17.40;99.90;;;;;;2103903;28;20016;-71
2023/05/23 02:48:21;;;;;;;8.68;7.20;;;17.40;99.90;;;;;;2105980;28;20039;-71
2023/05/23 02:49:21;;;;;;;7.65;6.82;;;17.40;99.90;;;;;;2101246;28;20023;-71
2023/05/23 02:50:22;;;;;;;8.45;7.35;;;17.50;99.90;;;;;;2104643;28;20024;-70
2023/05/23 02:51:22;;;;;;;8.48;7.03;;;17.40;99.90;;;;;;2102452;28;20028;-71
2023/05/23 02:52:24;;;;;;;10.52;7.45;;;17.40;99.90;;;;;;2105167;28;20075;-71
2023/05/23 02:53:25;;;;;;;8.25;7.20;;;17.50;99.90;;;;;;2104651;28;20043;-71
2023/05/23 02:54:25;;;;;;;9.75;7.70;;;17.40;99.90;;;;;;2103666;28;20036;-71
2023/05/23 02:55:26;;;;;;;8.60;7.70;;;17.40;99.90;;;;;;2106282;28;20024;-71
2023/05/23 02:56:27;;;;;;;8.77;7.75;;;17.40;99.90;;;;;;2107096;28;20653;-71
2023/05/23 02:57:27;;;;;;;10.40;8.10;;;17.30;99.90;;;;;;2106010;28;20028;-71
2023/05/23 02:58:28;;;;;;;9.60;8.05;;;17.40;99.90;;;;;;2106067;28;20027;-71
2023/05/23 02:59:29;;;;;;;8.63;7.60;;;17.30;99.90;;;;;;2103642;28;20484;-71
2023/05/23 03:00:31;;;;;;;8.48;7.10;;;17.30;99.90;;;;;;2104889;28;20032;-71
2023/05/23 03:01:31;;;;;;;8.90;7.65;;;17.30;99.90;;;;;;2105199;28;20064;-71
2023/05/23 03:02:32;;;;;;;9.32;7.47;;;17.30;99.90;;;;;;2103311;28;20077;-71
2023/05/23 03:03:33;;;;;;;10.82;8.05;;;17.30;99.90;;;;;;2102207;28;20039;-71
2023/05/23 03:04:33;;;;;;;11.13;8.02;;;17.30;99.90;;;;;;2103566;28;20068;-71
2023/05/23 03:05:35;;;;;;;10.05;7.70;;;17.30;99.90;;;;;;2103861;28;20027;-71
2023/05/23 03:06:36;;;;;;;8.65;7.63;;;17.30;99.90;;;;;;2106637;28;20120;-70
2023/05/23 03:07:36;;;;;;;10.02;8.27;;;17.30;99.90;;;;;;2104922;28;20081;-71
2023/05/23 03:08:37;;;;;;;10.85;7.95;;;17.30;99.90;;;;;;2104842;28;20110;-71
2023/05/23 03:09:37;;;;;;;11.02;8.18;;;17.30;99.90;;;;;;2104483;28;20077;-71
2023/05/23 03:10:38;;;;;;;9.27;7.72;;;17.20;99.90;;;;;;2103591;28;20065;-71
2023/05/23 03:11:39;;;;;;;8.82;7.72;;;17.20;99.90;;;;;;2104582;28;20059;-71
2023/05/23 03:12:39;;;;;;;8.75;7.55;;;17.20;99.90;;;;;;2106907;28;20023;-71
2023/05/23 03:13:40;;;;;;;12.13;7.88;;;17.20;99.90;;;;;;2104588;28;20036;-71
2023/05/23 03:14:40;;;;;;;10.63;8.48;;;17.20;99.90;;;;;;2105497;28;20113;-71
2023/05/23 03:15:41;;;;;;;10.13;7.38;;;17.20;99.90;;;;;;2107184;28;20703;-71
2023/05/23 03:16:41;;;;;;;10.35;7.72;;;17.20;99.90;;;;;;2103192;28;20020;-71
2023/05/23 03:17:42;;;;;;;12.25;8.02;;;17.20;99.90;;;;;;2104542;28;20103;-71
2023/05/23 03:18:42;;;;;;;10.25;7.28;;;17.20;99.90;;;;;;2105608;28;20036;-71
2023/05/23 03:19:43;;;;;;;9.93;8.02;;;17.20;99.90;;;;;;2105557;28;20100;-71
2023/05/23 03:20:43;;;;;;;11.25;8.13;;;17.20;99.90;;;;;;2107638;28;20063;-71
2023/05/23 03:21:44;;;;;;;10.15;7.97;;;17.10;99.90;;;;;;2103590;28;20034;-71
2023/05/23 03:22:44;;;;;;;11.00;7.35;;;17.10;99.90;;;;;;2104591;28;20097;-71
2023/05/23 03:23:45;;;;;;;9.90;7.97;;;17.20;99.90;;;;;;2105324;28;20032;-70
2023/05/23 03:24:46;;;;;;;12.35;6.93;;;17.10;99.90;;;;;;2106027;28;20027;-71
2023/05/23 03:25:46;;;;;;;9.60;7.32;;;17.10;99.90;;;;;;2105814;28;20103;-71
2023/05/23 03:26:47;;;;;;;12.15;8.07;;;17.10;99.90;;;;;;2106494;28;20020;-71
2023/05/23 03:27:47;;;;;;;10.50;7.45;;;17.10;99.90;;;;;;2104465;28;22173;-71
2023/05/23 03:28:48;;;;;;;9.65;6.82;;;17.10;99.90;;;;;;2106659;28;20020;-71
2023/05/23 03:29:49;;;;;;;8.88;7.15;;;17.10;99.90;;;;;;2101412;28;20127;-70
2023/05/23 03:30:50;;;;;;;8.68;7.05;;;17.10;99.90;;;;;;2104052;28;20594;-71
2023/05/23 03:31:50;;;;;;;11.32;7.20;;;17.10;99.90;;;;;;2105660;28;20047;-71
2023/05/23 03:32:52;;;;;;;9.43;7.30;;;17.10;99.90;;;;;;2105824;28;20107;-71
2023/05/23 03:33:53;;;;;;;10.00;7.57;;;17.10;99.90;;;;;;2104896;28;20036;-71
2023/05/23 03:34:53;;;;;;;8.52;7.15;;;17.00;99.90;;;;;;2104214;28;20016;-71
2023/05/23 03:35:56;;;;;;;7.13;6.22;;;17.10;99.90;;;;;;2103706;28;20594;-71
2023/05/23 03:36:56;;;;;;;8.63;6.82;;;17.00;99.90;;;;;;2106014;28;20178;-71
2023/05/23 03:37:57;;;;;;;9.35;7.07;;;17.00;99.90;;;;;;2103537;28;20039;-70
2023/05/23 03:38:57;;;;;;;10.60;7.35;;;17.00;99.90;;;;;;2104463;28;20107;-71
2023/05/23 03:39:58;;;;;;;7.63;6.57;;;17.00;99.90;;;;;;2105707;28;20016;-71
2023/05/23 03:40:59;;;;;;;8.18;7.30;;;17.00;99.90;;;;;;2103982;28;20012;-72
2023/05/23 03:41:59;;;;;;;7.97;7.00;;;17.00;99.90;;;;;;2103989;28;20480;-72
2023/05/23 03:43:07;;;;;;;8.68;6.85;;;16.90;99.90;;;;;;2105867;28;20043;-72
2023/05/23 03:44:07;;;;;;;10.07;7.75;;;16.90;99.90;;;;;;2100803;28;20024;-72
2023/05/23 03:45:08;;;;;;;10.95;7.55;;;16.90;99.90;;;;;;2106769;28;20019;-72
2023/05/23 03:46:09;;;;;;;10.07;7.47;;;16.90;99.90;;;;;;2102299;28;20475;-72
2023/05/23 03:47:09;;;;;;;8.82;7.53;;;16.80;99.90;;;;;;2103776;28;20032;-72
2023/05/23 03:48:10;;;;;;;9.02;6.93;;;16.80;99.90;;;;;;2105830;28;20526;-72
2023/05/23 03:49:10;;;;;;;11.07;7.43;;;16.80;99.90;;;;;;2103375;28;20026;-72
2023/05/23 03:50:11;;;;;;;11.13;7.70;;;16.80;99.90;;;;;;2105034;28;20020;-72
2023/05/23 03:51:14;;;;;;;8.10;6.97;;;16.80;99.90;;;;;;2104218;28;20035;-72
2023/05/23 03:52:15;;;;;;;8.82;6.97;;;16.80;99.90;;;;;;2101374;28;20077;-72
2023/05/23 03:53:15;;;;;;;7.32;6.55;;;16.80;99.90;;;;;;2105342;28;20024;-72
2023/05/23 03:54:16;;;;;;;6.93;6.22;;;16.80;99.90;;;;;;2103252;28;20031;-72
2023/05/23 03:55:21;;;;;;;8.73;7.30;;;16.80;99.90;;;;;;2106082;28;20085;-72
2023/05/23 03:56:21;;;;;;;9.20;7.13;;;16.80;99.90;;;;;;2106343;28;20048;-72
2023/05/23 03:57:22;;;;;;;8.95;7.40;;;16.80;99.90;;;;;;2102078;28;20027;-72
2023/05/23 03:58:22;;;;;;;9.52;7.72;;;16.80;99.90;;;;;;2102466;28;20020;-72
2023/05/23 03:59:23;;;;;;;11.55;7.72;;;16.70;99.90;;;;;;2104267;28;20445;-72
2023/05/23 04:00:24;;;;;;;11.02;7.82;;;16.70;99.90;;;;;;2101785;28;20035;-72
2023/05/23 04:01:24;;;;;;;9.90;6.90;;;16.70;99.90;;;;;;2104614;28;20032;-72
2023/05/23 04:02:25;;;;;;;7.55;6.72;;;16.70;99.90;;;;;;2103773;28;20547;-72
2023/05/23 04:03:26;;;;;;;9.48;7.50;;;16.70;99.90;;;;;;2104231;28;20031;-72
2023/05/23 04:04:28;;;;;;;7.80;6.90;;;16.70;99.90;;;;;;2105026;28;20036;-72
2023/05/23 04:05:28;;;;;;;8.75;7.53;;;16.70;99.90;;;;;;2102890;28;20044;-72
2023/05/23 04:06:30;;;;;;;12.60;7.68;;;16.70;99.90;;;;;;2104480;28;20051;-72
2023/05/23 04:07:33;;;;;;;11.38;7.15;;;16.60;99.90;;;;;;2101568;28;20024;-72
2023/05/23 04:08:34;;;;;;;9.32;6.80;;;16.60;99.90;;;;;;2105024;28;20735;-72
2023/05/23 04:09:34;;;;;;;9.38;6.95;;;16.70;99.90;;;;;;2105981;28;20410;-72
2023/05/23 04:10:35;;;;;;;9.98;7.30;;;16.70;99.90;;;;;;2103772;28;20064;-72
2023/05/23 04:11:35;;;;;;;10.10;6.70;;;16.60;99.90;;;;;;2103886;28;20537;-72
2023/05/23 04:12:40;;;;;;;11.00;6.47;;;16.70;99.90;;;;;;2103599;28;20113;-72
2023/05/23 04:13:41;;;;;;;8.07;6.80;;;16.70;99.90;;;;;;2103220;28;20035;-72
2023/05/23 04:14:42;;;;;;;7.85;6.85;;;16.70;99.90;;;;;;2104465;28;20468;-72
2023/05/23 04:15:43;;;;;;;9.80;7.30;;;16.70;99.90;;;;;;2101750;28;20434;-72
2023/05/23 04:16:44;;;;;;;9.35;6.97;;;16.70;99.90;;;;;;2103409;28;20023;-72
2023/05/23 04:17:44;;;;;;;7.43;6.70;;;16.70;99.90;;;;;;2104320;28;20549;-72
2023/05/23 04:18:46;;;;;;;8.98;6.75;;;16.80;99.90;;;;;;2102396;28;20023;-72
2023/05/23 04:19:46;;;;;;;9.35;6.93;;;16.80;99.90;;;;;;2105850;28;20027;-72
2023/05/23 04:20:47;;;;;;;7.30;6.50;;;16.80;99.90;;;;;;2105664;28;20028;-72
2023/05/23 04:21:48;;;;;;;8.75;7.10;;;16.80;99.90;;;;;;2104186;28;20043;-72
2023/05/23 04:22:48;;;;;;;9.20;6.88;;;16.80;99.90;;;;;;2103277;28;20020;-72
2023/05/23 04:23:49;;;;;;;9.10;6.70;;;16.80;99.90;;;;;;2102536;28;20051;-72
2023/05/23 04:24:49;;;;;;;7.82;7.03;;;16.80;99.90;;;;;;2106048;28;20031;-72
2023/05/23 04:25:50;;;;;;;8.40;7.00;;;16.80;99.90;;;;;;2101964;28;20028;-72
2023/05/23 04:26:51;;;;;;;8.68;6.70;;;16.80;99.90;;;;;;2104253;28;20820;-72
2023/05/23 04:27:53;;;;;;;8.75;7.28;;;16.80;99.90;;;;;;2103799;28;20081;-72
2023/05/23 04:28:53;;;;;;;8.27;6.85;;;16.80;99.90;;;;;;2104914;28;20020;-72
2023/05/23 04:29:55;;;;;;;8.98;6.75;;;16.80;99.90;;;;;;2102646;28;20058;-72
2023/05/23 04:30:57;;;;;;;10.13;7.45;;;16.80;99.90;;;;;;2104271;28;20955;-71
2023/05/23 04:31:57;;;;;;;8.60;6.65;;;16.80;99.90;;;;;;2102780;28;20034;-72
2023/05/23 04:32:58;;;;;;;9.82;7.03;;;16.80;99.90;;;;;;2104325;28;20084;-72
2023/05/23 04:33:59;;;;;;;9.68;7.18;;;16.80;99.90;;;;;;2105757;28;20464;-72
2023/05/23 04:35:01;;;;;;;8.88;6.82;;;16.80;99.90;;;;;;2104427;28;20422;-72
2023/05/23 04:36:01;;;;;;;9.93;6.75;;;16.80;99.90;;;;;;2098831;28;20016;-72
2023/05/23 04:37:02;;;;;;;8.75;6.63;;;16.80;99.90;;;;;;2100665;28;20028;-72
2023/05/23 04:38:03;;;;;;;8.57;7.10;;;16.80;99.90;;;;;;2099773;28;20084;-72
2023/05/23 04:39:04;;;;;;;11.77;7.65;;;16.80;99.90;;;;;;2099100;28;20051;-72
2023/05/23 04:40:06;;;;;;;12.93;7.50;;;16.80;99.90;;;;;;2097883;28;20032;-72
2023/05/23 04:41:09;;;;;;;10.52;6.80;;;16.80;99.90;;;;;;2103890;28;20031;-72
2023/05/23 04:42:09;;;;;;;8.98;7.55;;;16.80;99.90;;;;;;2105309;28;20055;-72
2023/05/23 04:43:13;;;;;;;10.07;7.57;;;16.80;99.90;;;;;;2103535;28;20028;-72
2023/05/23 04:44:13;;;;;;;10.38;8.95;;;16.80;99.90;;;;;;2104869;28;20022;-72
2023/05/23 04:45:14;;;;;;;11.50;8.02;;;16.80;99.90;;;;;;2103149;28;20020;-72
2023/05/23 04:46:15;;;;;;;11.15;7.85;;;16.80;99.90;;;;;;2104525;28;20055;-72
2023/05/23 04:47:16;;;;;;;11.35;8.13;;;16.90;99.90;;;;;;2105826;28;20032;-72
2023/05/23 04:48:20;;;;;;;11.10;8.50;;;16.80;99.90;;;;;;2102661;28;20425;-72
2023/05/23 04:49:21;;;;;;;12.00;8.82;;;16.80;99.90;;;;;;2103150;28;20047;-72
2023/05/23 04:50:22;;;;;;;11.73;7.78;;;16.80;99.90;;;;;;2102605;28;20089;-72
2023/05/23 04:51:22;;;;;;;11.20;8.40;;;16.80;99.90;;;;;;2103502;28;20028;-72
2023/05/23 04:52:24;;;;;;;9.45;7.88;;;16.80;99.90;;;;;;2099164;28;20555;-72
2023/05/23 04:53:24;;;;;;;10.77;7.63;;;16.80;99.90;;;;;;2098789;28;20031;-71
2023/05/23 04:54:25;;;;;;;11.85;7.90;;;16.80;99.90;;;;;;2103994;28;20024;-71
2023/05/23 04:55:26;;;;;;;10.23;7.80;;;16.80;99.90;;;;;;2105342;28;20455;-72
2023/05/23 04:56:27;;;;;;;10.68;8.32;;;16.80;99.90;;;;;;2106407;28;20519;-72
2023/05/23 04:57:28;;;;;;;12.10;8.95;;;16.80;99.90;;;;;;2105928;28;20042;-72
2023/05/23 04:58:28;;;;;;;13.77;9.15;;;16.80;99.90;;;;;;2101327;28;20043;-72
2023/05/23 04:59:29;;;;;;;10.68;8.27;;;16.80;99.90;;;;;;2102685;28;20115;-72
2023/05/23 05:00:29;;;;;;;8.60;7.65;;;16.80;99.90;;;;;;2105462;28;20027;-72
2023/05/23 05:01:30;;;;;;;10.70;8.77;;;16.80;99.90;;;;;;2101518;28;20572;-72
2023/05/23 05:02:34;;;;;;;12.10;8.48;;;16.80;99.90;;;;;;2103403;28;20371;-72
2023/05/23 05:03:34;;;;;;;13.02;8.18;;;16.80;99.90;;;;;;2107914;28;20137;-72
2023/05/23 05:04:35;;;;;;;12.88;9.02;;;16.80;99.90;;;;;;2107351;28;20036;-72
2023/05/23 05:05:36;;;;;;;12.05;9.35;;;16.80;99.90;;;;;;2099870;28;20028;-72
2023/05/23 05:06:37;;;;;;;14.70;9.00;;;16.80;99.90;;;;;;2106070;28;20420;-72
2023/05/23 05:07:38;;;;;;;11.05;8.75;;;16.80;99.90;;;;;;2102459;28;20016;-72
2023/05/23 05:08:39;;;;;;;11.60;8.15;;;16.70;99.90;;;;;;2102839;28;20040;-72
2023/05/23 05:09:40;;;;;;;12.73;9.52;;;16.70;99.90;;;;;;2105377;28;20020;-72
2023/05/23 05:10:41;;;;;;;14.07;10.65;;;16.80;99.90;;;;;;2104438;28;20020;-72
2023/05/23 05:11:41;;;;;;;14.18;9.90;;;16.70;99.90;;;;;;2104471;28;20061;-72
2023/05/23 05:12:48;;;;;;;12.25;9.35;;;16.80;99.90;;;;;;2102421;28;20064;-72
2023/05/23 05:13:48;;;;;;;14.90;9.40;;;16.70;99.90;;;;;;2103934;28;20454;-72
2023/05/23 05:14:49;;;;;;;12.95;9.40;;;16.70;99.90;;;;;;2103626;28;20020;-72
2023/05/23 05:15:51;;;;;;;13.98;10.48;;;16.70;99.90;;;;;;2102731;28;20028;-72
2023/05/23 05:16:53;;;;;;;12.18;8.88;;;16.70;99.90;;;;;;2105984;28;20024;-72
2023/05/23 05:17:55;;;;;;;15.07;10.40;;;16.70;99.90;;;;;;2103180;28;20044;-72
2023/05/23 05:18:56;;;;;;;14.00;10.48;;;16.70;99.90;;;;;;2102379;28;20182;-72
2023/05/23 05:19:56;;;;;;;13.60;10.32;;;16.70;99.90;;;;;;2102044;28;20035;-72
2023/05/23 05:20:57;;;;;;;13.07;9.35;;;16.60;99.90;;;;;;2104019;28;20535;-72